Time;durP1;ratioP1;P1;durP2;ratioP2;P2;SDS_P1;SDS_P2;PMS_P1;PMS_P2;Temp;Humidity;BMP_temperature;BMP_pressure;BME280_temperature;BME280_humidity;BME280_pressure;Samples;Min_cycle;Max_cycle;Signal;HPM_P1;HPM_P2
2022/06/25 00:00:20;;;;;;;;;;;;;;;-142.75;100.00;75792.81;4971544;28;20291;-69
2022/06/25 00:02:45;;;;;;;;;;;;;;;-142.75;100.00;75794.78;4971558;28;19925;-70
2022/06/25 00:05:28;;;;;;;;;;;;;;;-142.75;100.00;75788.88;4971383;28;20059;-70
2022/06/25 00:07:57;;;;;;;;;;;;;;;-142.75;100.00;75802.66;4970202;28;20337;-69
2022/06/25 00:10:23;;;;;;;;;;;;;;;-142.75;100.00;75794.78;4971427;28;19914;-70
2022/06/25 00:12:48;;;;;;;;;;;;;;;-142.75;100.00;75792.81;4971327;28;19929;-70
2022/06/25 00:15:13;;;;;;;;;;;;;;;-142.75;100.00;75798.72;4971347;28;19918;-70
2022/06/25 00:17:38;;;;;;;;;;;;;;;-142.75;100.00;75794.78;4971356;28;20016;-70
2022/06/25 00:20:04;;;;;;;;;;;;;;;-142.75;100.00;75792.81;4971074;28;20014;-69
2022/06/25 00:22:30;;;;;;;;;;;;;;;-142.75;100.00;75796.75;4971236;28;20005;-70
2022/06/25 00:24:55;;;;;;;;;;;;;;;-142.75;100.00;75806.59;4971237;28;20375;-70
2022/06/25 00:27:20;;;;;;;;;;;;;;;-142.75;100.00;75810.53;4971073;28;19921;-70
2022/06/25 00:29:45;;;;;;;;;;;;;;;-142.75;100.00;75810.53;4970896;28;19925;-69
2022/06/25 00:32:11;;;;;;;;;;;;;;;-142.75;100.00;75814.47;4971097;28;19914;-70
2022/06/25 00:34:37;;;;;;;;;;;;;;;-142.75;100.00;75822.34;4971038;28;19920;-70
2022/06/25 00:37:02;;;;;;;;;;;;;;;-142.75;100.00;75826.28;4970965;28;19950;-70
2022/06/25 00:39:27;;;;;;;;;;;;;;;-142.75;100.00;75814.47;4970713;28;20342;-70
2022/06/25 00:41:52;;;;;;;;;;;;;;;-142.75;100.00;75826.28;4970863;28;19914;-70
2022/06/25 00:44:18;;;;;;;;;;;;;;;-142.75;100.00;75828.25;4970952;28;19939;-70
2022/06/25 00:46:47;;;;;;;;;;;;;;;-142.75;100.00;75838.09;4970767;28;19942;-70
2022/06/25 00:49:12;;;;;;;;;;;;;;;-142.75;100.00;75834.16;4970595;28;19937;-69
2022/06/25 00:51:39;;;;;;;;;;;;;;;-142.75;100.00;75842.03;4970814;28;19914;-70
2022/06/25 00:54:05;;;;;;;;;;;;;;;-142.75;100.00;75849.91;4970715;28;20005;-69
2022/06/25 00:56:32;;;;;;;;;;;;;;;-142.75;100.00;75849.91;4970592;28;20411;-69
2022/06/25 00:59:01;;;;;;;;;;;;;;;-142.75;100.00;75853.84;4970477;28;19997;-70
2022/06/25 01:01:27;;;;;;;;;;;;;;;-142.75;100.00;75867.59;4970634;28;20375;-70
2022/06/25 01:03:52;;;;;;;;;;;;;;;-142.75;100.00;75869.56;4970723;28;19914;-69
2022/06/25 01:06:17;;;;;;;;;;;;;;;-142.75;100.00;75871.53;4970412;28;19926;-70
2022/06/25 01:08:42;;;;;;;;;;;;;;;-142.75;100.00;75877.44;4970371;28;20437;-70
2022/06/25 01:11:10;;;;;;;;;;;;;;;-142.75;100.00;75881.38;4970531;28;20372;-69
2022/06/25 01:13:35;;;;;;;;;;;;;;;-142.75;100.00;75877.44;4970643;28;19929;-70
2022/06/25 01:16:01;;;;;;;;;;;;;;;-142.75;100.00;75881.38;4970458;28;19918;-69
2022/06/25 01:18:26;;;;;;;;;;;;;;;-142.75;100.00;75893.19;4970263;28;19914;-70
2022/06/25 01:20:51;;;;;;;;;;;;;;;-142.75;100.00;75903.03;4969270;28;19922;-69
2022/06/25 01:23:16;;;;;;;;;;;;;;;-142.75;100.00;75908.94;4969257;28;20280;-69
2022/06/25 01:25:41;;;;;;;;;;;;;;;-142.75;100.00;75905.00;4970136;28;19918;-69
2022/06/25 01:28:07;;;;;;;;;;;;;;;-142.75;100.00;75908.94;4970161;28;19964;-69
2022/06/25 01:30:33;;;;;;;;;;;;;;;-142.75;100.00;75916.81;4970379;28;19914;-70
2022/06/25 01:32:58;;;;;;;;;;;;;;;-142.75;100.00;75920.75;4970366;28;19915;-69
2022/06/25 01:35:24;;;;;;;;;;;;;;;-142.75;100.00;75922.72;4970108;28;20403;-69
2022/06/25 01:37:50;;;;;;;;;;;;;;;-142.75;100.00;75924.69;4970128;28;19996;-69
2022/06/25 01:40:15;;;;;;;;;;;;;;;-142.75;100.00;75934.53;4970117;28;19918;-70
2022/06/25 01:42:59;;;;;;;;;;;;;;;-142.75;100.00;75944.38;4970257;28;19914;-69
2022/06/25 01:45:24;;;;;;;;;;;;;;;-142.75;100.00;75946.34;4968925;28;20004;-70
2022/06/25 01:47:50;;;;;;;;;;;;;;;-142.75;100.00;75948.31;4968804;28;20506;-69
2022/06/25 01:50:15;;;;;;;;;;;;;;;-142.75;100.00;75948.31;4970037;28;19918;-69
2022/06/25 01:52:42;;;;;;;;;;;;;;;-142.75;100.00;75948.31;4968802;28;19922;-70
2022/06/25 01:55:08;;;;;;;;;;;;;;;-142.75;100.00;75958.16;4969945;28;19925;-69
2022/06/25 01:57:33;;;;;;;;;;;;;;;-142.75;100.00;75960.13;4968750;28;19914;-70
2022/06/25 01:59:59;;;;;;;;;;;;;;;-142.75;100.00;75967.97;4969752;28;20012;-70
2022/06/25 02:02:24;;;;;;;;;;;;;;;-142.75;100.00;75964.03;4969995;28;20005;-70
2022/06/25 02:04:49;;;;;;;;;;;;;;;-142.75;100.00;75958.16;4970005;28;19914;-69
2022/06/25 02:07:14;;;;;;;;;;;;;;;-142.75;100.00;75964.03;4969764;28;20013;-70
2022/06/25 02:09:39;;;;;;;;;;;;;;;-142.75;100.00;75971.91;4969653;28;19965;-70
2022/06/25 02:12:05;;;;;;;;;;;;;;;-142.75;100.00;75967.97;4969913;28;19922;-69
2022/06/25 02:14:30;;;;;;;;;;;;;;;-142.75;100.00;75964.03;4972807;28;19918;-70
2022/06/25 02:16:55;;;;;;;;;;;;;;;-142.75;100.00;75973.88;4973079;28;19988;-70
2022/06/25 02:19:21;;;;;;;;;;;;;;;-142.75;100.00;75971.91;4971569;28;20345;-70
2022/06/25 02:21:46;;;;;;;;;;;;;;;-142.75;100.00;75979.78;4972988;28;19973;-69
2022/06/25 02:24:11;;;;;;;;;;;;;;;-142.75;100.00;75983.72;4971809;28;19926;-70
2022/06/25 02:26:36;;;;;;;;;;;;;;;-142.75;100.00;75981.75;4972937;28;19914;-70
2022/06/25 02:29:02;;;;;;;;;;;;;;;-142.75;100.00;75991.59;4971464;28;19914;-70
2022/06/25 02:31:28;;;;;;;;;;;;;;;-142.75;100.00;75987.66;4972925;28;19959;-70
2022/06/25 02:33:53;;;;;;;;;;;;;;;-142.75;100.00;75989.63;4972911;28;20003;-70
2022/06/25 02:36:18;;;;;;;;;;;;;;;-142.75;100.00;75987.66;4971368;28;19918;-69
2022/06/25 02:38:43;;;;;;;;;;;;;;;-142.75;100.00;75989.63;4972508;28;20372;-70
2022/06/25 02:41:08;;;;;;;;;;;;;;;-142.75;100.00;75995.53;4971532;28;19915;-69
2022/06/25 02:43:33;;;;;;;;;;;;;;;-142.75;100.00;75997.50;4972781;28;19960;-70
2022/06/25 02:45:59;;;;;;;;;;;;;;;-142.75;100.00;76003.41;4972631;28;19920;-70
2022/06/25 02:48:24;;;;;;;;;;;;;;;-142.75;100.00;76003.41;4971114;28;19914;-70
2022/06/25 02:50:49;;;;;;;;;;;;;;;-142.75;100.00;76015.22;4972558;28;19957;-70
2022/06/25 02:53:14;;;;;;;;;;;;;;;-142.75;100.00;76015.22;4971327;28;19920;-70
2022/06/25 03:01:07;;;;;;;;;;;;;;;-142.75;100.00;76027.03;4972816;28;19960;-69
2022/06/25 03:03:32;;;;;;;;;;;;;;;-142.75;100.00;76030.97;4971141;28;19918;-70
2022/06/25 03:05:58;;;;;;;;;;;;;;;-142.75;100.00;76030.97;4972224;28;19968;-70
2022/06/25 03:08:23;;;;;;;;;;;;;;;-142.75;100.00;76030.97;4972102;28;19965;-70
2022/06/25 03:10:48;;;;;;;;;;;;;;;-142.75;100.00;76030.97;4972361;28;19915;-70
2022/06/25 03:13:13;;;;;;;;;;;;;;;-142.75;100.00;76025.06;4971085;28;19936;-69
2022/06/25 03:15:39;;;;;;;;;;;;;;;-142.75;100.00;76029.00;4972135;28;19929;-70
2022/06/25 03:18:04;;;;;;;;;;;;;;;-142.75;100.00;76027.03;4970623;28;19914;-69
2022/06/25 03:20:29;;;;;;;;;;;;;;;-142.75;100.00;76023.09;4970954;28;19914;-70
2022/06/25 03:22:55;;;;;;;;;;;;;;;-142.75;100.00;76032.94;4972164;28;19918;-70
2022/06/25 03:27:55;;;;;;;;;;;;;;;-142.75;100.00;76034.91;5069284;22;19955;-67
2022/06/25 03:30:21;;;;;;;;;;;;;;;-142.75;100.00;76034.91;5052408;28;19917;-68
2022/06/25 03:32:46;;;;;;;;;;;;;;;-142.75;100.00;76034.91;5053883;28;20370;-68
2022/06/25 03:35:11;;;;;;;;;;;;;;;-142.75;100.00;76042.78;5053692;28;19917;-68
2022/06/25 03:37:36;;;;;;;;;;;;;;;-142.75;100.00;76050.66;5053811;28;19913;-67
2022/06/25 03:40:02;;;;;;;;;;;;;;;-142.75;100.00;76038.84;5054010;28;20290;-68
2022/06/25 03:42:27;;;;;;;;;;;;;;;-142.75;100.00;76038.84;5054023;28;19917;-68
2022/06/25 03:44:52;;;;;;;;;;;;;;;-142.75;100.00;76040.81;5054016;28;20164;-68
2022/06/25 03:47:17;;;;;;;;;;;;;;;-142.75;100.00;76034.91;5053612;28;20354;-68
2022/06/25 03:49:42;;;;;;;;;;;;;;;-142.75;100.00;76034.91;5053455;28;19917;-68
2022/06/25 03:52:08;;;;;;;;;;;;;;;-142.75;100.00;76029.00;5053798;28;19912;-68
2022/06/25 03:54:33;;;;;;;;;;;;;;;-142.75;100.00;76027.03;5053442;28;19917;-68
2022/06/25 03:56:58;;;;;;;;;;;;;;;-142.75;100.00;76034.91;5053731;28;19919;-67
2022/06/25 03:59:23;;;;;;;;;;;;;;;-142.75;100.00;76036.88;5053329;28;19913;-68
2022/06/25 04:01:48;;;;;;;;;;;;;;;-142.75;100.00;76034.91;5053623;28;19920;-68
2022/06/25 04:04:14;;;;;;;;;;;;;;;-142.75;100.00;76034.91;5053482;28;19913;-68
2022/06/25 04:06:39;;;;;;;;;;;;;;;-142.75;100.00;76042.78;5053394;28;20037;-68
2022/06/25 04:09:04;;;;;;;;;;;;;;;-142.75;100.00;76042.78;5053243;28;19912;-67
2022/06/25 04:11:30;;;;;;;;;;;;;;;-142.75;100.00;76046.72;5053302;28;20436;-68
2022/06/25 04:13:55;;;;;;;;;;;;;;;-142.75;100.00;76046.72;5053320;28;19916;-68
2022/06/25 04:16:20;;;;;;;;;;;;;;;-142.75;100.00;76042.78;5053210;28;19963;-68
2022/06/25 04:18:46;;;;;;;;;;;;;;;-142.75;100.00;76040.81;5052832;28;19913;-68
2022/06/25 04:21:11;;;;;;;;;;;;;;;-142.75;100.00;76048.69;5053059;28;19912;-68
2022/06/25 04:23:36;;;;;;;;;;;;;;;-142.75;100.00;76046.72;5052887;28;19919;-68
2022/06/25 04:26:01;;;;;;;;;;;;;;;-142.75;100.00;76052.63;5052861;28;20413;-67
2022/06/25 04:31:10;;;;;;;;;;;;;;;-142.75;100.00;76050.66;5053826;28;19959;-68
2022/06/25 04:33:35;;;;;;;;;;;;;;;-142.75;100.00;76054.59;5052813;28;20317;-68
2022/06/25 04:36:01;;;;;;;;;;;;;;;-142.75;100.00;76058.53;5052548;28;20286;-68
2022/06/25 04:38:26;;;;;;;;;;;;;;;-142.75;100.00;76054.59;5052484;28;19912;-68
2022/06/25 04:40:51;;;;;;;;;;;;;;;-142.75;100.00;76062.47;5053019;28;20294;-67
2022/06/25 04:43:17;;;;;;;;;;;;;;;-142.75;100.00;76058.53;5052839;28;20438;-68
2022/06/25 04:45:42;;;;;;;;;;;;;;;-142.75;100.00;76066.41;5052792;28;19917;-67
2022/06/25 04:48:07;;;;;;;;;;;;;;;-142.75;100.00;76072.31;5052217;28;20271;-68
2022/06/25 04:50:32;;;;;;;;;;;;;;;-142.75;100.00;76076.22;5053036;28;19931;-68
2022/06/25 04:52:57;;;;;;;;;;;;;;;-142.75;100.00;76064.44;5052556;28;19913;-67
2022/06/25 04:55:23;;;;;;;;;;;;;;;-142.75;100.00;76074.25;5052517;28;20058;-68
2022/06/25 04:57:48;;;;;;;;;;;;;;;-142.75;100.00;76068.38;5052669;28;20058;-69
2022/06/25 05:00:13;;;;;;;;;;;;;;;-142.75;100.00;76072.31;5052420;28;20421;-69
2022/06/25 05:02:39;;;;;;;;;;;;;;;-142.75;100.00;76070.34;5052363;28;20023;-68
2022/06/25 05:05:04;;;;;;;;;;;;;;;-142.75;100.00;76076.22;5052449;28;19913;-67
2022/06/25 05:07:29;;;;;;;;;;;;;;;-142.75;100.00;76080.16;5052314;28;20015;-68
2022/06/25 05:09:55;;;;;;;;;;;;;;;-142.75;100.00;76078.19;5052087;28;20004;-68
2022/06/25 05:15:04;;;;;;;;;;;;;;;-142.75;100.00;76064.44;5052581;28;20018;-69
2022/06/25 05:17:29;;;;;;;;;;;;;;;-142.75;100.00;76068.38;5052239;28;19916;-66
2022/06/25 05:19:55;;;;;;;;;;;;;;;-142.75;100.00;76070.34;5052158;28;19986;-65
2022/06/25 05:22:21;;;;;;;;;;;;;;;-142.75;100.00;76058.53;5052220;28;20007;-66
2022/06/25 05:24:46;;;;;;;;;;;;;;;-142.75;100.00;76052.63;5052906;28;20004;-66
2022/06/25 05:27:11;;;;;;;;;;;;;;;-142.75;100.00;76050.66;5052240;28;19917;-66
2022/06/25 05:29:36;;;;;;;;;;;;;;;-142.75;100.00;76042.78;5051992;28;19913;-65
2022/06/25 05:32:02;;;;;;;;;;;;;;;-142.75;100.00;76040.81;5052200;28;19913;-66
2022/06/25 05:34:27;;;;;;;;;;;;;;;-142.75;100.00;76034.91;5034188;28;19966;-66
2022/06/25 05:36:52;;;;;;;;;;;;;;;-142.75;100.00;76038.84;5051859;28;20422;-66
2022/06/25 05:39:17;;;;;;;;;;;;;;;-142.75;100.00;76019.16;5051875;28;19913;-66
2022/06/25 05:41:42;;;;;;;;;;;;;;;-142.75;100.00;76019.16;5052395;28;20489;-66
2022/06/25 05:44:07;;;;;;;;;;;;;;;-142.75;100.00;76005.38;5052475;28;19952;-65
2022/06/25 05:46:33;;;;;;;;;;;;;;;-142.75;100.00;76003.41;5052451;28;20023;-66
2022/06/25 05:48:58;;;;;;;;;;;;;;;-142.75;100.00;75997.50;5037295;28;19975;-66
2022/06/25 05:51:23;;;;;;;;;;;;;;;-142.75;100.00;75991.59;5056241;28;19916;-66
2022/06/25 05:53:48;;;;;;;;;;;;;;;-142.75;100.00;75983.72;5056437;28;19913;-66
2022/06/25 05:56:13;;;;;;;;;;;;;;;-142.75;100.00;75964.03;5056557;28;20435;-66
2022/06/25 05:58:38;;;;;;;;;;;;;;;-142.75;100.00;75956.19;5056186;28;19913;-66
2022/06/25 06:01:04;;;;;;;;;;;;;;;-142.75;100.00;75967.97;5055773;28;19913;-66
2022/06/25 06:03:29;;;;;;;;;;;;;;;-142.75;100.00;75964.03;5038055;28;20329;-66
2022/06/25 06:05:54;;;;;;;;;;;;;;;-142.75;100.00;75964.03;5055542;28;19966;-66
2022/06/25 06:08:21;;;;;;;;;;;;;;;-142.75;100.00;75948.31;5055339;28;20022;-66
2022/06/25 06:10:46;;;;;;;;;;;;;;;-142.75;100.00;75938.47;5056561;28;19947;-66
2022/06/25 06:13:11;;;;;;;;;;;;;;;-142.75;100.00;75930.59;5055269;28;20290;-66
2022/06/25 06:15:36;;;;;;;;;;;;;;;-142.75;100.00;75922.72;5055135;28;20023;-66
2022/06/25 06:18:02;;;;;;;;;;;;;;;-142.75;100.00;75906.97;5055111;28;19916;-66
2022/06/25 06:20:27;;;;;;;;;;;;;;;-142.75;100.00;75897.13;5055522;28;20337;-66
2022/06/25 06:22:52;;;;;;;;;;;;;;;-142.75;100.00;75889.25;5056221;28;19919;-65
2022/06/25 06:25:17;;;;;;;;;;;;;;;-142.75;100.00;75889.25;5055428;28;20371;-66
2022/06/25 06:27:42;;;;;;;;;;;;;;;-142.75;100.00;75885.31;5054775;28;19920;-66
2022/06/25 06:30:10;;;;;;;;;;;;;;;-142.75;100.00;75877.44;5054888;28;19919;-65
2022/06/25 06:32:35;;;;;;;;;;;;;;;-142.75;100.00;75875.47;5055087;28;19913;-65
2022/06/25 06:35:00;;;;;;;;;;;;;;;-142.75;100.00;75895.16;5054982;28;19970;-65
2022/06/25 06:37:26;;;;;;;;;;;;;;;-142.75;100.00;75891.22;5053763;28;19948;-65
2022/06/25 06:39:51;;;;;;;;;;;;;;;-142.75;100.00;75924.69;5053730;28;19913;-64
2022/06/25 06:42:16;;;;;;;;;;;;;;;-142.75;100.00;75928.63;5054591;28;20382;-64
2022/06/25 06:44:42;;;;;;;;;;;;;;;-142.75;100.00;75928.63;5054144;28;19996;-65
2022/06/25 06:47:07;;;;;;;;;;;;;;;-142.75;100.00;75932.56;5054303;28;19940;-65
2022/06/25 06:49:32;;;;;;;;;;;;;;;-142.75;100.00;75932.56;5054732;28;20336;-66
2022/06/25 06:51:57;;;;;;;;;;;;;;;-142.75;100.00;75932.56;5054373;28;19966;-64
2022/06/25 06:54:23;;;;;;;;;;;;;;;-142.75;100.00;75948.31;5053884;28;20011;-65
2022/06/25 06:56:48;;;;;;;;;;;;;;;-142.75;100.00;75952.25;5053689;28;20388;-65
2022/06/25 06:59:13;;;;;;;;;;;;;;;-142.75;100.00;75960.13;5053397;28;20556;-64
2022/06/25 07:01:38;;;;;;;;;;;;;;;-142.75;100.00;75967.97;5053561;28;20016;-64
2022/06/25 07:04:03;;;;;;;;;;;;;;;-142.75;100.00;75989.63;5053854;28;20341;-65
2022/06/25 07:06:29;;;;;;;;;;;;;;;-142.75;100.00;75999.47;5035396;28;19920;-64
2022/06/25 07:08:54;;;;;;;;;;;;;;;-142.75;100.00;75999.47;5053052;28;19916;-65
2022/06/25 07:11:28;;;;;;;;;;;;;;;-142.75;100.00;75995.53;5053335;28;20282;-65
2022/06/25 07:13:54;;;;;;;;;;;;;;;-142.75;100.00;75995.53;5053394;28;19936;-65
2022/06/25 07:16:20;;;;;;;;;;;;;;;-142.75;100.00;75999.47;5053207;28;19917;-64
2022/06/25 07:18:45;;;;;;;;;;;;;;;-142.75;100.00;76011.28;5052835;28;19921;-64
2022/06/25 07:21:10;;;;;;;;;;;;;;;-142.75;100.00;76001.44;5053954;28;19913;-66
2022/06/25 07:23:35;;;;;;;;;;;;;;;-142.75;100.00;76001.44;5054085;28;20389;-66
2022/06/25 07:26:00;;;;;;;;;;;;;;;-142.75;100.00;76001.44;5053875;28;20366;-66
2022/06/25 07:28:26;;;;;;;;;;;;;;;-142.75;100.00;75999.47;5053742;28;19913;-66
2022/06/25 07:30:51;;;;;;;;;;;;;;;-142.75;100.00;75987.66;5054045;28;19967;-66
2022/06/25 07:33:17;;;;;;;;;;;;;;;-142.75;100.00;75991.59;5053881;28;19932;-66
2022/06/25 07:35:42;;;;;;;;;;;;;;;-142.75;100.00;75979.78;5053618;28;19916;-66
2022/06/25 07:38:08;;;;;;;;;;;;;;;-142.75;100.00;75967.97;5053477;28;20602;-66
2022/06/25 07:40:33;;;;;;;;;;;;;;;-142.75;100.00;75979.78;5053763;28;19924;-66
2022/06/25 07:42:58;;;;;;;;;;;;;;;-142.75;100.00;75999.47;5053720;28;19919;-64
2022/06/25 07:45:23;;;;;;;;;;;;;;;-142.75;100.00;75995.53;5053611;28;20003;-64
2022/06/25 07:47:48;;;;;;;;;;;;;;;-142.75;100.00;75981.75;5053288;28;19913;-65
2022/06/25 07:52:57;;;;;;;;;;;;;;;-142.75;100.00;75971.91;5053340;28;20417;-64
2022/06/25 07:55:23;;;;;;;;;;;;;;;-142.75;100.00;75979.78;5053332;28;19990;-64
2022/06/25 07:57:48;;;;;;;;;;;;;;;-142.75;100.00;75983.72;5052914;28;19913;-65
2022/06/25 08:00:13;;;;;;;;;;;;;;;-142.75;100.00;75983.72;5053186;28;19917;-65
2022/06/25 08:02:39;;;;;;;;;;;;;;;-142.75;100.00;75979.78;5053208;28;19916;-64
2022/06/25 08:05:05;;;;;;;;;;;;;;;-142.75;100.00;75977.81;5053075;28;20442;-65
2022/06/25 08:07:30;;;;;;;;;;;;;;;-142.75;100.00;75975.84;5053004;28;19917;-65
2022/06/25 08:09:55;;;;;;;;;;;;;;;-142.75;100.00;75991.59;5052565;28;19920;-64
2022/06/25 08:12:21;;;;;;;;;;;;;;;-142.75;100.00;76019.16;5052492;28;20401;-64
2022/06/25 08:14:46;;;;;;;;;;;;;;;-142.75;100.00;76011.28;5052814;28;19975;-64
2022/06/25 08:17:11;;;;;;;;;;;;;;;-142.75;100.00;76005.38;5052837;28;19920;-64
2022/06/25 08:19:36;;;;;;;;;;;;;;;-142.75;100.00;76009.31;5052804;28;19917;-64
2022/06/25 08:22:02;;;;;;;;;;;;;;;-142.75;100.00;75999.47;5052913;28;19913;-65
2022/06/25 08:24:27;;;;;;;;;;;;;;;-142.75;100.00;75999.47;5052912;28;20275;-64
2022/06/25 08:26:52;;;;;;;;;;;;;;;-142.75;100.00;76003.41;5052575;28;19966;-65
2022/06/25 08:29:18;;;;;;;;;;;;;;;-142.75;100.00;76005.38;5052505;28;19928;-65
2022/06/25 08:31:43;;;;;;;;;;;;;;;-142.75;100.00;76015.22;5052626;28;19917;-64
2022/06/25 08:34:08;;;;;;;;;;;;;;;-142.75;100.00;76007.34;5052545;28;19966;-65
2022/06/25 08:36:33;;;;;;;;;;;;;;;-142.75;100.00;76007.34;5052476;28;19926;-65
2022/06/25 08:38:58;;;;;;;;;;;;;;;-142.75;100.00;75999.47;5052309;28;19978;-66
2022/06/25 08:41:24;;;;;;;;;;;;;;;-142.75;100.00;76007.34;5052490;28;19913;-64
2022/06/25 08:43:49;;;;;;;;;;;;;;;-142.75;100.00;76015.22;5052481;28;19912;-64
2022/06/25 08:46:15;;;;;;;;;;;;;;;-142.75;100.00;76025.06;5052425;28;20281;-64
2022/06/25 08:48:42;;;;;;;;;;;;;;;-142.75;100.00;76032.94;5052063;28;19913;-64
2022/06/25 08:51:08;;;;;;;;;;;;;;;-142.75;100.00;76038.84;5052364;28;19939;-64
2022/06/25 08:53:34;;;;;;;;;;;;;;;-142.75;100.00;76058.53;5052507;28;20344;-64
2022/06/25 08:56:00;;;;;;;;;;;;;;;-142.75;100.00;76068.38;5052122;28;20007;-64
2022/06/25 08:58:25;;;;;;;;;;;;;;;-142.75;100.00;76072.31;5052081;28;19956;-64
2022/06/25 09:00:50;;;;;;;;;;;;;;;-142.75;100.00;76082.13;5052410;28;19920;-64
2022/06/25 09:03:16;;;;;;;;;;;;;;;-142.75;100.00;76093.94;5052202;28;20072;-64
2022/06/25 09:05:42;;;;;;;;;;;;;;;-142.75;100.00;76088.03;5052639;28;19919;-64
2022/06/25 09:08:09;;;;;;;;;;;;;;;-142.75;100.00;76093.94;5052130;28;19935;-64
2022/06/25 09:10:35;;;;;;;;;;;;;;;-142.75;100.00;76090.00;5052082;28;19940;-64
2022/06/25 09:13:01;;;;;;;;;;;;;;;-142.75;100.00;76091.97;5052142;28;19959;-64
2022/06/25 09:15:29;;;;;;;;;;;;;;;-142.75;100.00;76090.00;5052096;28;19916;-64
2022/06/25 09:17:54;;;;;;;;;;;;;;;-142.75;100.00;76097.88;5051452;28;19917;-64
2022/06/25 09:20:20;;;;;;;;;;;;;;;-142.75;100.00;76105.75;5051986;28;19912;-64
2022/06/25 09:22:56;;;;;;;;;;;;;;;-142.75;100.00;76099.84;5052902;28;19924;-64
2022/06/25 09:25:25;;;;;;;;;;;;;;;-142.75;100.00;76109.69;5056163;28;20318;-64
2022/06/25 09:27:50;;;;;;;;;;;;;;;-142.75;100.00;76113.63;5013389;22;20395;-66
2022/06/25 09:30:17;;;;;;;;;;;;;;;-142.75;100.00;76115.59;4972454;28;19957;-68
2022/06/25 09:32:46;;;;;;;;;;;;;;;-142.75;100.00;76111.66;4973923;28;20269;-70
2022/06/25 09:35:12;;;;;;;;;;;;;;;-142.75;100.00;76109.69;4973635;28;19918;-69
2022/06/25 09:37:38;;;;;;;;;;;;;;;-142.75;100.00;76111.66;4968725;28;19923;-68
2022/06/25 09:40:04;;;;;;;;;;;;;;;-142.75;100.00;76117.56;4954212;28;19968;-68
2022/06/25 09:42:33;;;;;;;;;;;;;;;-142.75;100.00;76156.94;4954426;28;20009;-66
2022/06/25 09:44:59;;;;;;;;;;;;;;;-142.75;100.00;76162.84;4954375;28;19918;-66
2022/06/25 09:47:24;;;;;;;;;;;;;;;-142.75;100.00;76164.81;4952980;28;19921;-70
2022/06/25 09:49:49;;;;;;;;;;;;;;;-142.75;100.00;76166.78;4952788;28;19915;-67
2022/06/25 09:52:15;;;;;;;;;;;;;;;-142.75;100.00;76178.59;4954320;28;20384;-68
2022/06/25 09:54:40;;;;;;;;;;;;;;;-142.75;100.00;76166.78;4954295;28;19918;-68
2022/06/25 09:57:05;;;;;;;;;;;;;;;-142.75;100.00;76156.94;4952900;28;20009;-68
2022/06/25 09:59:32;;;;;;;;;;;;;;;-142.75;100.00;76149.06;4952630;29;19926;-67
2022/06/25 10:01:58;;;;;;;;;;;;;;;-142.75;100.00;76137.25;4956677;28;19961;-66
2022/06/25 10:04:27;;;;;;;;;;;;;;;-142.75;100.00;76121.50;4959121;28;19915;-68
2022/06/25 10:06:53;;;;;;;;;;;;;;;-142.75;100.00;76117.56;4954058;28;19922;-68
2022/06/25 10:09:19;;;;;;;;;;;;;;;-142.75;100.00;76101.81;4953829;28;20339;-68
2022/06/25 10:11:44;;;;;;;;;;;;;;;-142.75;100.00;76088.03;4954054;28;19968;-69
2022/06/25 10:14:11;;;;;;;;;;;;;;;-142.75;100.00;76086.06;4953943;28;19919;-68
2022/06/25 10:16:36;;;;;;;;;;;;;;;-142.75;100.00;76034.91;4953997;28;19922;-69
2022/06/25 10:19:03;;;;;;;;;;;;;;;-142.75;100.00;76032.94;4952432;28;19933;-68
2022/06/25 10:21:28;;;;;;;;;;;;;;;-142.75;100.00;76030.97;4952675;28;19915;-67
2022/06/25 10:23:56;;;;;;;;;;;;;;;-142.75;100.00;76011.28;4953853;28;19922;-67
2022/06/25 10:26:22;;;;;;;;;;;;;;;-142.75;100.00;75964.03;4953648;28;19919;-68
2022/06/25 10:28:47;;;;;;;;;;;;;;;-142.75;100.00;75944.38;4953433;28;19918;-70
2022/06/25 10:31:15;;;;;;;;;;;;;;;-142.75;100.00;75928.63;4953737;28;19925;-68
2022/06/25 10:33:58;;;;;;;;;;;;;;;-142.75;100.00;75912.88;4951855;28;20447;-68
2022/06/25 10:36:38;;;;;;;;;;;;;;;-142.75;100.00;75887.28;4953521;28;19926;-67
2022/06/25 10:39:21;;;;;;;;;;;;;;;-142.75;100.00;75877.44;4953233;28;20533;-68
2022/06/25 10:44:50;;;;;;;;;;;;;;;-142.75;100.00;75863.66;4953581;29;19922;-69
2022/06/25 10:47:16;;;;;;;;;;;;;;;-142.75;100.00;75887.28;4953383;28;19915;-68
2022/06/25 10:49:41;;;;;;;;;;;;;;;-142.75;100.00;75851.88;4953032;28;19918;-68
2022/06/25 10:52:07;;;;;;;;;;;;;;;-142.75;100.00;75830.22;4952165;28;19957;-70
2022/06/25 10:54:33;;;;;;;;;;;;;;;-142.75;100.00;75779.03;4953352;28;19914;-68
2022/06/25 10:57:00;;;;;;;;;;;;;;;-142.75;100.00;75729.84;4953298;28;19919;-67
2022/06/25 10:59:55;;;;;;;;;;;;;;;-142.75;100.00;75692.44;4953070;28;19915;-68
2022/06/25 11:02:23;;;;;;;;;;;;;;;-142.75;100.00;75684.56;4952778;28;19922;-68
2022/06/25 11:04:52;;;;;;;;;;;;;;;-142.75;100.00;75747.56;4953222;28;19928;-68
2022/06/25 11:07:19;;;;;;;;;;;;;;;-142.75;100.00;75739.69;4955564;28;20052;-67
2022/06/25 11:10:11;;;;;;;;;;;;;;;-142.75;100.00;75747.56;4960387;28;19922;-68
2022/06/25 11:12:38;;;;;;;;;;;;;;;-142.75;100.00;75767.22;4951801;28;19930;-68
2022/06/25 11:15:05;;;;;;;;;;;;;;;-142.75;100.00;75747.56;4953018;28;19914;-68
2022/06/25 11:17:30;;;;;;;;;;;;;;;-142.75;100.00;75735.75;4952922;28;19957;-70
2022/06/25 11:20:12;;;;;;;;;;;;;;;-142.75;100.00;75733.78;4952798;28;20629;-68
2022/06/25 11:22:47;;;;;;;;;;;;;;;-142.75;100.00;75727.88;4951613;28;20276;-69
2022/06/25 11:30:40;;;;;;;;;;;;;;;-142.75;100.00;75733.78;4952865;29;19922;-68
2022/06/25 11:33:09;;;;;;;;;;;;;;;-142.75;100.00;75727.88;4951596;28;19915;-70
2022/06/25 11:35:39;;;;;;;;;;;;;;;-142.75;100.00;75708.19;4952766;28;20330;-69
2022/06/25 11:38:12;;;;;;;;;;;;;;;-142.75;100.00;75781.00;4952428;28;19914;-69
2022/06/25 11:40:37;;;;;;;;;;;;;;;-142.75;100.00;75757.41;4952702;28;19934;-68
2022/06/25 11:43:06;;;;;;;;;;;;;;;-142.75;100.00;75759.38;4952648;28;19914;-70
2022/06/25 11:45:31;;;;;;;;;;;;;;;-142.75;100.00;75790.84;4951660;28;20459;-68
2022/06/25 11:47:57;;;;;;;;;;;;;;;-142.75;100.00;75763.28;4952191;28;20041;-70
2022/06/25 11:50:22;;;;;;;;;;;;;;;-142.75;100.00;75759.38;4952632;28;19914;-69
2022/06/25 11:52:47;;;;;;;;;;;;;;;-142.75;100.00;75761.34;4952498;28;19915;-69
2022/06/25 11:55:12;;;;;;;;;;;;;;;-142.75;100.00;75753.47;4952510;28;19972;-69
2022/06/25 11:57:39;;;;;;;;;;;;;;;-142.75;100.00;75769.19;4952341;28;20402;-69
2022/06/25 12:00:07;;;;;;;;;;;;;;;-142.75;100.00;75763.28;4952137;28;19976;-68
2022/06/25 12:02:32;;;;;;;;;;;;;;;-142.75;100.00;75751.50;4952278;28;20339;-68
2022/06/25 12:04:59;;;;;;;;;;;;;;;-142.75;100.00;75775.09;4952284;29;19915;-68
2022/06/25 12:07:27;;;;;;;;;;;;;;;-142.75;100.00;75743.63;4952176;28;19985;-69
2022/06/25 12:09:54;;;;;;;;;;;;;;;-142.75;100.00;75723.94;4952050;28;20316;-70
2022/06/25 12:12:21;;;;;;;;;;;;;;;-142.75;100.00;75720.00;4952223;28;19914;-68
2022/06/25 12:14:47;;;;;;;;;;;;;;;-142.75;100.00;75788.88;4952114;28;19914;-70
2022/06/25 12:17:12;;;;;;;;;;;;;;;-142.75;100.00;75775.09;4951997;28;20349;-68
2022/06/25 12:19:48;;;;;;;;;;;;;;;-142.75;100.00;75779.03;4951758;28;19924;-69
2022/06/25 12:22:26;;;;;;;;;;;;;;;-142.75;100.00;75794.78;4952056;28;19952;-69
2022/06/25 12:24:53;;;;;;;;;;;;;;;-142.75;100.00;75804.63;4952030;28;20368;-69
2022/06/25 12:27:19;;;;;;;;;;;;;;;-142.75;100.00;75814.47;4951759;28;20437;-69
2022/06/25 12:29:46;;;;;;;;;;;;;;;-142.75;100.00;75818.41;4951673;28;19915;-69
2022/06/25 12:32:11;;;;;;;;;;;;;;;-142.75;100.00;75788.88;4950743;28;19954;-68
2022/06/25 12:34:44;;;;;;;;;;;;;;;-142.75;100.00;75749.53;4951932;28;19970;-69
2022/06/25 12:37:09;;;;;;;;;;;;;;;-142.75;100.00;75716.06;4950482;28;19926;-69